Lamont, Michigan
Current Conditions -  °F | °C
As of 11:22 AM on Friday 24 Oct 2014 (Local Time) from KGRR Reporting Station
Broken Clouds Broken Clouds  
Wind Chill: 56°   Ceiling: 4300
Heat Index: 56°   Visibility: 7mi
Dew Point: 48°   Wind: 3mph
Humidity: 75%   Direction: 220°SW
Pressure: 30.05"   Gusts: NA
Location:  43.01°N, 85.91°W
Report Text: KGRR 241522Z 22003KT 7SM SCT020 BKN043 13/09 A3005 RMK AO2 T01330089
Loading
Personal Weather Stations






























Interactive Weather Map
Tropical Storm Tracking
New forecast layout! Learn more

10-Day Weather Forecast

Advertisements
Track Severe Weather on mobile